sensor_id;sensor_type;location;lat;lon;timestamp;temperature;humidity
4584;DHT22;2304;47.606;12.186;2023-05-28T00:03:41;17.20;58.70
4584;DHT22;2304;47.606;12.186;2023-05-28T00:08:44;17.00;58.40
4584;DHT22;2304;47.606;12.186;2023-05-28T00:13:46;17.00;58.70
4584;DHT22;2304;47.606;12.186;2023-05-28T00:18:48;17.00;58.70
4584;DHT22;2304;47.606;12.186;2023-05-28T00:23:51;16.80;58.50
4584;DHT22;2304;47.606;12.186;2023-05-28T00:28:53;16.80;58.90
4584;DHT22;2304;47.606;12.186;2023-05-28T00:33:55;17.00;59.20
4584;DHT22;2304;47.606;12.186;2023-05-28T00:38:58;16.70;58.90
4584;DHT22;2304;47.606;12.186;2023-05-28T00:44:05;16.80;59.20
4584;DHT22;2304;47.606;12.186;2023-05-28T00:49:10;16.50;59.50
4584;DHT22;2304;47.606;12.186;2023-05-28T00:54:13;16.50;59.50
4584;DHT22;2304;47.606;12.186;2023-05-28T00:59:15;16.40;59.80
4584;DHT22;2304;47.606;12.186;2023-05-28T01:04:17;16.30;60.00
4584;DHT22;2304;47.606;12.186;2023-05-28T01:09:21;16.20;60.50
4584;DHT22;2304;47.606;12.186;2023-05-28T01:14:23;16.40;60.20
4584;DHT22;2304;47.606;12.186;2023-05-28T01:19:25;16.20;60.40
4584;DHT22;2304;47.606;12.186;2023-05-28T01:24:29;16.10;60.90
4584;DHT22;2304;47.606;12.186;2023-05-28T01:29:32;16.10;61.30
4584;DHT22;2304;47.606;12.186;2023-05-28T01:34:34;16.00;61.20
4584;DHT22;2304;47.606;12.186;2023-05-28T01:39:39;15.90;62.20
4584;DHT22;2304;47.606;12.186;2023-05-28T01:44:42;15.80;63.30
4584;DHT22;2304;47.606;12.186;2023-05-28T01:49:44;15.80;63.20
4584;DHT22;2304;47.606;12.186;2023-05-28T01:54:48;15.70;62.90
4584;DHT22;2304;47.606;12.186;2023-05-28T01:59:49;15.70;62.70
4584;DHT22;2304;47.606;12.186;2023-05-28T02:04:51;15.80;63.00
4584;DHT22;2304;47.606;12.186;2023-05-28T02:09:55;15.60;62.80
4584;DHT22;2304;47.606;12.186;2023-05-28T02:14:56;15.50;63.80
4584;DHT22;2304;47.606;12.186;2023-05-28T02:19:58;15.50;63.50
4584;DHT22;2304;47.606;12.186;2023-05-28T02:25:01;15.30;64.30
4584;DHT22;2304;47.606;12.186;2023-05-28T02:30:04;15.30;64.00
4584;DHT22;2304;47.606;12.186;2023-05-28T02:35:07;15.30;63.80
4584;DHT22;2304;47.606;12.186;2023-05-28T02:40:11;15.30;64.40
4584;DHT22;2304;47.606;12.186;2023-05-28T02:45:13;15.30;64.50
4584;DHT22;2304;47.606;12.186;2023-05-28T02:50:15;15.10;64.80
4584;DHT22;2304;47.606;12.186;2023-05-28T02:55:18;15.10;64.00
4584;DHT22;2304;47.606;12.186;2023-05-28T03:00:21;15.10;64.40
4584;DHT22;2304;47.606;12.186;2023-05-28T03:05:23;15.10;64.30
4584;DHT22;2304;47.606;12.186;2023-05-28T03:10:27;15.00;64.60
4584;DHT22;2304;47.606;12.186;2023-05-28T03:15:28;14.90;64.80
4584;DHT22;2304;47.606;12.186;2023-05-28T03:20:31;14.90;64.70
4584;DHT22;2304;47.606;12.186;2023-05-28T03:25:35;14.80;64.20
4584;DHT22;2304;47.606;12.186;2023-05-28T03:30:36;14.80;64.30
4584;DHT22;2304;47.606;12.186;2023-05-28T03:35:40;14.80;64.60
4584;DHT22;2304;47.606;12.186;2023-05-28T03:40:44;14.80;64.50
4584;DHT22;2304;47.606;12.186;2023-05-28T03:45:45;14.70;64.80
4584;DHT22;2304;47.606;12.186;2023-05-28T03:50:47;14.70;64.90
4584;DHT22;2304;47.606;12.186;2023-05-28T03:55:50;14.70;65.00
4584;DHT22;2304;47.606;12.186;2023-05-28T04:00:53;14.70;65.50
4584;DHT22;2304;47.606;12.186;2023-05-28T04:05:55;14.70;65.70
4584;DHT22;2304;47.606;12.186;2023-05-28T04:10:58;14.70;65.80
4584;DHT22;2304;47.606;12.186;2023-05-28T04:16:00;14.70;66.40
4584;DHT22;2304;47.606;12.186;2023-05-28T04:21:01;14.70;66.20
4584;DHT22;2304;47.606;12.186;2023-05-28T04:26:05;14.70;66.80
4584;DHT22;2304;47.606;12.186;2023-05-28T04:31:08;14.80;67.10
4584;DHT22;2304;47.606;12.186;2023-05-28T04:36:10;14.80;66.80
4584;DHT22;2304;47.606;12.186;2023-05-28T04:41:15;14.80;67.00
4584;DHT22;2304;47.606;12.186;2023-05-28T04:46:17;15.00;68.00
4584;DHT22;2304;47.606;12.186;2023-05-28T04:51:19;14.80;67.40
4584;DHT22;2304;47.606;12.186;2023-05-28T04:56:22;14.90;68.50
4584;DHT22;2304;47.606;12.186;2023-05-28T05:01:24;15.10;68.20
4584;DHT22;2304;47.606;12.186;2023-05-28T05:06:26;15.00;66.70
4584;DHT22;2304;47.606;12.186;2023-05-28T05:11:29;15.10;66.20
4584;DHT22;2304;47.606;12.186;2023-05-28T05:16:31;15.20;66.30
4584;DHT22;2304;47.606;12.186;2023-05-28T05:21:33;15.30;66.30
4584;DHT22;2304;47.606;12.186;2023-05-28T05:26:37;15.50;66.40
4584;DHT22;2304;47.606;12.186;2023-05-28T05:31:39;15.40;66.20
4584;DHT22;2304;47.606;12.186;2023-05-28T05:36:41;15.70;66.60
4584;DHT22;2304;47.606;12.186;2023-05-28T05:41:46;15.80;65.00
4584;DHT22;2304;47.606;12.186;2023-05-28T05:46:48;16.10;66.10
4584;DHT22;2304;47.606;12.186;2023-05-28T05:51:50;16.50;66.10
4584;DHT22;2304;47.606;12.186;2023-05-28T05:56:53;16.60;65.00
4584;DHT22;2304;47.606;12.186;2023-05-28T06:01:55;16.50;64.30
4584;DHT22;2304;47.606;12.186;2023-05-28T06:06:57;16.60;64.00
4584;DHT22;2304;47.606;12.186;2023-05-28T06:12:00;17.00;62.70
4584;DHT22;2304;47.606;12.186;2023-05-28T06:17:02;17.20;62.40
4584;DHT22;2304;47.606;12.186;2023-05-28T06:22:04;17.30;61.60
4584;DHT22;2304;47.606;12.186;2023-05-28T06:27:07;17.50;60.20
4584;DHT22;2304;47.606;12.186;2023-05-28T06:32:09;17.70;60.40
4584;DHT22;2304;47.606;12.186;2023-05-28T06:37:12;17.90;60.20
4584;DHT22;2304;47.606;12.186;2023-05-28T06:42:15;18.10;60.20
4584;DHT22;2304;47.606;12.186;2023-05-28T06:47:17;18.40;60.60
4584;DHT22;2304;47.606;12.186;2023-05-28T06:52:19;18.50;59.10
4584;DHT22;2304;47.606;12.186;2023-05-28T06:57:22;18.60;58.00
4584;DHT22;2304;47.606;12.186;2023-05-28T07:02:24;19.00;58.70
4584;DHT22;2304;47.606;12.186;2023-05-28T07:07:26;19.30;57.50
4584;DHT22;2304;47.606;12.186;2023-05-28T07:12:30;19.50;57.60
4584;DHT22;2304;47.606;12.186;2023-05-28T07:17:31;19.80;57.00
4584;DHT22;2304;47.606;12.186;2023-05-28T07:22:33;19.90;55.60
4584;DHT22;2304;47.606;12.186;2023-05-28T07:27:36;20.10;55.90
4584;DHT22;2304;47.606;12.186;2023-05-28T07:32:38;20.50;56.10
4584;DHT22;2304;47.606;12.186;2023-05-28T07:37:40;20.80;55.10
4584;DHT22;2304;47.606;12.186;2023-05-28T07:42:44;21.00;53.90
4584;DHT22;2304;47.606;12.186;2023-05-28T07:47:45;21.10;52.50
4584;DHT22;2304;47.606;12.186;2023-05-28T07:52:47;21.20;51.60
4584;DHT22;2304;47.606;12.186;2023-05-28T07:57:51;21.30;51.40
4584;DHT22;2304;47.606;12.186;2023-05-28T08:02:53;21.60;52.60
4584;DHT22;2304;47.606;12.186;2023-05-28T08:07:55;22.00;52.60
4584;DHT22;2304;47.606;12.186;2023-05-28T08:12:58;22.10;50.60
4584;DHT22;2304;47.606;12.186;2023-05-28T08:17:59;22.40;51.10
4584;DHT22;2304;47.606;12.186;2023-05-28T08:23:01;22.60;50.40
4584;DHT22;2304;47.606;12.186;2023-05-28T08:28:05;22.80;50.50
4584;DHT22;2304;47.606;12.186;2023-05-28T08:33:10;23.10;50.60
4584;DHT22;2304;47.606;12.186;2023-05-28T08:38:11;23.10;48.10
4584;DHT22;2304;47.606;12.186;2023-05-28T08:43:15;23.30;48.30
4584;DHT22;2304;47.606;12.186;2023-05-28T08:48:17;23.50;49.50
4584;DHT22;2304;47.606;12.186;2023-05-28T08:53:21;23.70;48.60
4584;DHT22;2304;47.606;12.186;2023-05-28T08:58:25;23.60;46.20
4584;DHT22;2304;47.606;12.186;2023-05-28T09:03:27;23.70;44.90
4584;DHT22;2304;47.606;12.186;2023-05-28T09:08:29;23.90;45.90
4584;DHT22;2304;47.606;12.186;2023-05-28T09:13:32;24.00;45.80
4584;DHT22;2304;47.606;12.186;2023-05-28T09:18:35;24.40;46.00
4584;DHT22;2304;47.606;12.186;2023-05-28T09:23:38;24.70;47.50
4584;DHT22;2304;47.606;12.186;2023-05-28T09:28:42;24.70;45.30
4584;DHT22;2304;47.606;12.186;2023-05-28T09:33:45;24.90;45.40
4584;DHT22;2304;47.606;12.186;2023-05-28T09:38:47;25.00;44.40
4584;DHT22;2304;47.606;12.186;2023-05-28T09:43:57;25.20;44.20
4584;DHT22;2304;47.606;12.186;2023-05-28T09:49:00;25.20;44.60
4584;DHT22;2304;47.606;12.186;2023-05-28T09:54:03;25.50;44.50
4584;DHT22;2304;47.606;12.186;2023-05-28T09:59:07;25.50;43.20
4584;DHT22;2304;47.606;12.186;2023-05-28T10:04:12;25.70;43.80
4584;DHT22;2304;47.606;12.186;2023-05-28T10:09:17;25.90;43.90
4584;DHT22;2304;47.606;12.186;2023-05-28T10:14:22;25.90;44.00
4584;DHT22;2304;47.606;12.186;2023-05-28T10:19:24;26.00;43.80
4584;DHT22;2304;47.606;12.186;2023-05-28T10:24:27;25.90;42.80
4584;DHT22;2304;47.606;12.186;2023-05-28T10:29:37;25.90;44.40
4584;DHT22;2304;47.606;12.186;2023-05-28T10:34:39;26.10;44.40
4584;DHT22;2304;47.606;12.186;2023-05-28T10:39:42;26.10;43.40
4584;DHT22;2304;47.606;12.186;2023-05-28T10:45:03;26.20;43.40
4584;DHT22;2304;47.606;12.186;2023-05-28T10:50:14;26.50;43.00
4584;DHT22;2304;47.606;12.186;2023-05-28T10:55:16;26.80;42.40
4584;DHT22;2304;47.606;12.186;2023-05-28T11:00:24;26.90;41.60
4584;DHT22;2304;47.606;12.186;2023-05-28T11:05:26;26.80;42.20
4584;DHT22;2304;47.606;12.186;2023-05-28T11:10:28;26.80;40.90
4584;DHT22;2304;47.606;12.186;2023-05-28T11:15:31;26.80;40.80
4584;DHT22;2304;47.606;12.186;2023-05-28T11:20:33;26.70;39.50
4584;DHT22;2304;47.606;12.186;2023-05-28T11:25:41;26.70;40.60
4584;DHT22;2304;47.606;12.186;2023-05-28T11:30:45;26.90;40.30
4584;DHT22;2304;47.606;12.186;2023-05-28T11:35:56;27.00;40.10
4584;DHT22;2304;47.606;12.186;2023-05-28T11:40:59;27.10;39.40
4584;DHT22;2304;47.606;12.186;2023-05-28T11:46:05;27.10;39.00
4584;DHT22;2304;47.606;12.186;2023-05-28T11:51:07;27.10;38.90
4584;DHT22;2304;47.606;12.186;2023-05-28T11:56:09;27.10;39.90
4584;DHT22;2304;47.606;12.186;2023-05-28T12:01:14;27.00;38.70
4584;DHT22;2304;47.606;12.186;2023-05-28T12:06:16;27.10;39.00
4584;DHT22;2304;47.606;12.186;2023-05-28T12:11:25;26.90;37.80
4584;DHT22;2304;47.606;12.186;2023-05-28T12:16:28;26.80;39.20
4584;DHT22;2304;47.606;12.186;2023-05-28T12:21:34;27.00;39.20
4584;DHT22;2304;47.606;12.186;2023-05-28T12:26:36;26.90;37.70
4584;DHT22;2304;47.606;12.186;2023-05-28T12:31:39;26.90;38.60
4584;DHT22;2304;47.606;12.186;2023-05-28T12:36:41;26.60;38.30
4584;DHT22;2304;47.606;12.186;2023-05-28T12:41:42;26.60;38.00
4584;DHT22;2304;47.606;12.186;2023-05-28T12:46:46;26.90;38.80
4584;DHT22;2304;47.606;12.186;2023-05-28T12:51:48;27.00;39.00
4584;DHT22;2304;47.606;12.186;2023-05-28T12:56:50;26.80;37.60
4584;DHT22;2304;47.606;12.186;2023-05-28T13:01:54;27.00;39.60
4584;DHT22;2304;47.606;12.186;2023-05-28T13:06:56;27.00;39.60
4584;DHT22;2304;47.606;12.186;2023-05-28T13:11:58;27.10;38.40
4584;DHT22;2304;47.606;12.186;2023-05-28T13:17:01;27.10;37.70
4584;DHT22;2304;47.606;12.186;2023-05-28T13:22:03;27.20;37.90
4584;DHT22;2304;47.606;12.186;2023-05-28T13:27:05;27.20;37.90
4584;DHT22;2304;47.606;12.186;2023-05-28T13:32:09;27.30;37.50
4584;DHT22;2304;47.606;12.186;2023-05-28T13:37:10;27.20;36.80
4584;DHT22;2304;47.606;12.186;2023-05-28T13:42:12;27.00;38.10
4584;DHT22;2304;47.606;12.186;2023-05-28T13:47:21;27.00;37.80
4584;DHT22;2304;47.606;12.186;2023-05-28T13:52:23;26.90;37.10
4584;DHT22;2304;47.606;12.186;2023-05-28T13:57:24;27.00;37.00
4584;DHT22;2304;47.606;12.186;2023-05-28T14:02:27;27.00;38.40
4584;DHT22;2304;47.606;12.186;2023-05-28T14:07:29;26.90;37.20
4584;DHT22;2304;47.606;12.186;2023-05-28T14:12:31;26.60;37.60
4584;DHT22;2304;47.606;12.186;2023-05-28T14:17:35;26.20;37.20
4584;DHT22;2304;47.606;12.186;2023-05-28T14:22:36;25.90;38.00
4584;DHT22;2304;47.606;12.186;2023-05-28T14:27:38;25.70;37.80
4584;DHT22;2304;47.606;12.186;2023-05-28T14:32:42;25.40;38.10
4584;DHT22;2304;47.606;12.186;2023-05-28T14:37:44;25.20;38.70
4584;DHT22;2304;47.606;12.186;2023-05-28T14:42:47;25.10;39.60
4584;DHT22;2304;47.606;12.186;2023-05-28T14:47:50;25.00;39.40
4584;DHT22;2304;47.606;12.186;2023-05-28T14:52:52;24.90;40.60
4584;DHT22;2304;47.606;12.186;2023-05-28T14:57:54;24.80;41.10
4584;DHT22;2304;47.606;12.186;2023-05-28T15:02:57;24.70;40.00
4584;DHT22;2304;47.606;12.186;2023-05-28T15:07:59;24.80;41.30
4584;DHT22;2304;47.606;12.186;2023-05-28T15:13:01;24.70;40.90
4584;DHT22;2304;47.606;12.186;2023-05-28T15:18:05;24.80;41.20
4584;DHT22;2304;47.606;12.186;2023-05-28T15:23:07;24.70;41.50
4584;DHT22;2304;47.606;12.186;2023-05-28T15:28:09;24.60;40.20
4584;DHT22;2304;47.606;12.186;2023-05-28T15:33:14;24.60;40.70
4584;DHT22;2304;47.606;12.186;2023-05-28T15:38:16;24.50;40.40
4584;DHT22;2304;47.606;12.186;2023-05-28T15:43:19;24.40;40.40
4584;DHT22;2304;47.606;12.186;2023-05-28T15:48:22;24.40;41.90
4584;DHT22;2304;47.606;12.186;2023-05-28T15:53:25;24.40;40.70
4584;DHT22;2304;47.606;12.186;2023-05-28T15:58:27;24.30;41.30
4584;DHT22;2304;47.606;12.186;2023-05-28T16:03:31;24.20;40.30
4584;DHT22;2304;47.606;12.186;2023-05-28T16:08:34;24.10;40.90
4584;DHT22;2304;47.606;12.186;2023-05-28T16:13:38;24.10;40.90
4584;DHT22;2304;47.606;12.186;2023-05-28T16:18:43;24.00;41.60
4584;DHT22;2304;47.606;12.186;2023-05-28T16:23:45;24.10;42.10
4584;DHT22;2304;47.606;12.186;2023-05-28T16:28:47;24.00;42.10
4584;DHT22;2304;47.606;12.186;2023-05-28T16:33:51;24.00;41.60
4584;DHT22;2304;47.606;12.186;2023-05-28T16:38:53;24.00;41.80
4584;DHT22;2304;47.606;12.186;2023-05-28T16:43:55;24.00;42.00
4584;DHT22;2304;47.606;12.186;2023-05-28T16:48:59;23.90;40.40
4584;DHT22;2304;47.606;12.186;2023-05-28T16:54:01;23.80;40.40
4584;DHT22;2304;47.606;12.186;2023-05-28T16:59:03;23.80;40.00
4584;DHT22;2304;47.606;12.186;2023-05-28T17:04:06;23.70;40.90
4584;DHT22;2304;47.606;12.186;2023-05-28T17:09:08;23.70;42.00
4584;DHT22;2304;47.606;12.186;2023-05-28T17:14:10;23.60;42.20
4584;DHT22;2304;47.606;12.186;2023-05-28T17:19:13;23.50;40.60
4584;DHT22;2304;47.606;12.186;2023-05-28T17:24:15;23.40;41.70
4584;DHT22;2304;47.606;12.186;2023-05-28T17:29:17;23.30;42.30
4584;DHT22;2304;47.606;12.186;2023-05-28T17:34:20;23.30;43.80
4584;DHT22;2304;47.606;12.186;2023-05-28T17:39:22;23.10;44.90
4584;DHT22;2304;47.606;12.186;2023-05-28T17:44:23;23.00;45.20
4584;DHT22;2304;47.606;12.186;2023-05-28T17:49:27;22.90;45.80
4584;DHT22;2304;47.606;12.186;2023-05-28T17:54:29;22.80;47.00
4584;DHT22;2304;47.606;12.186;2023-05-28T17:59:30;22.60;45.30
4584;DHT22;2304;47.606;12.186;2023-05-28T18:04:34;22.50;47.30
4584;DHT22;2304;47.606;12.186;2023-05-28T18:09:35;22.40;48.00
4584;DHT22;2304;47.606;12.186;2023-05-28T18:14:37;22.30;48.00
4584;DHT22;2304;47.606;12.186;2023-05-28T18:19:41;22.10;46.50
4584;DHT22;2304;47.606;12.186;2023-05-28T18:24:43;21.90;47.20
4584;DHT22;2304;47.606;12.186;2023-05-28T18:29:45;21.90;48.90
4584;DHT22;2304;47.606;12.186;2023-05-28T18:34:48;21.80;49.00
4584;DHT22;2304;47.606;12.186;2023-05-28T18:39:50;21.70;50.00
4584;DHT22;2304;47.606;12.186;2023-05-28T18:44:53;21.60;48.90
4584;DHT22;2304;47.606;12.186;2023-05-28T18:49:56;21.50;50.20
4584;DHT22;2304;47.606;12.186;2023-05-28T18:54:58;21.40;50.30
4584;DHT22;2304;47.606;12.186;2023-05-28T19:00:00;21.20;49.90
4584;DHT22;2304;47.606;12.186;2023-05-28T19:05:04;21.00;50.00
4584;DHT22;2304;47.606;12.186;2023-05-28T19:10:07;20.80;49.90
4584;DHT22;2304;47.606;12.186;2023-05-28T19:15:09;20.60;50.30
4584;DHT22;2304;47.606;12.186;2023-05-28T19:20:14;20.40;51.40
4584;DHT22;2304;47.606;12.186;2023-05-28T19:25:16;20.20;51.00
4584;DHT22;2304;47.606;12.186;2023-05-28T19:30:18;20.10;51.50
4584;DHT22;2304;47.606;12.186;2023-05-28T19:35:21;20.00;52.20
4584;DHT22;2304;47.606;12.186;2023-05-28T19:40:23;20.00;52.90
4584;DHT22;2304;47.606;12.186;2023-05-28T19:45:24;20.00;52.90
4584;DHT22;2304;47.606;12.186;2023-05-28T19:50:28;20.10;53.70
4584;DHT22;2304;47.606;12.186;2023-05-28T19:55:29;20.10;54.00
4584;DHT22;2304;47.606;12.186;2023-05-28T20:00:31;20.00;53.80
4584;DHT22;2304;47.606;12.186;2023-05-28T20:05:34;20.00;54.40
4584;DHT22;2304;47.606;12.186;2023-05-28T20:10:36;20.00;55.00
4584;DHT22;2304;47.606;12.186;2023-05-28T20:15:38;19.90;55.50
4584;DHT22;2304;47.606;12.186;2023-05-28T20:20:42;19.70;54.00
4584;DHT22;2304;47.606;12.186;2023-05-28T20:25:44;19.80;55.70
4584;DHT22;2304;47.606;12.186;2023-05-28T20:30:46;19.70;55.70
4584;DHT22;2304;47.606;12.186;2023-05-28T20:35:50;19.80;56.40
4584;DHT22;2304;47.606;12.186;2023-05-28T20:40:52;19.60;56.60
4584;DHT22;2304;47.606;12.186;2023-05-28T20:45:54;19.40;56.80
4584;DHT22;2304;47.606;12.186;2023-05-28T20:50:58;19.40;56.70
4584;DHT22;2304;47.606;12.186;2023-05-28T20:56:01;19.20;56.40
4584;DHT22;2304;47.606;12.186;2023-05-28T21:01:03;19.30;56.20
4584;DHT22;2304;47.606;12.186;2023-05-28T21:06:06;19.10;56.20
4584;DHT22;2304;47.606;12.186;2023-05-28T21:11:08;19.00;56.40
4584;DHT22;2304;47.606;12.186;2023-05-28T21:16:10;19.00;56.40
4584;DHT22;2304;47.606;12.186;2023-05-28T21:21:13;19.00;57.00
4584;DHT22;2304;47.606;12.186;2023-05-28T21:26:15;18.90;57.60
4584;DHT22;2304;47.606;12.186;2023-05-28T21:31:17;18.90;57.40
4584;DHT22;2304;47.606;12.186;2023-05-28T21:36:20;18.80;57.40
4584;DHT22;2304;47.606;12.186;2023-05-28T21:41:22;18.80;57.50
4584;DHT22;2304;47.606;12.186;2023-05-28T21:46:24;18.70;58.40
4584;DHT22;2304;47.606;12.186;2023-05-28T21:51:27;18.70;57.90
4584;DHT22;2304;47.606;12.186;2023-05-28T21:56:30;18.70;57.70
4584;DHT22;2304;47.606;12.186;2023-05-28T22:01:32;18.50;56.70
4584;DHT22;2304;47.606;12.186;2023-05-28T22:06:35;18.40;58.50
4584;DHT22;2304;47.606;12.186;2023-05-28T22:11:37;18.40;59.40
4584;DHT22;2304;47.606;12.186;2023-05-28T22:16:39;18.20;58.40
4584;DHT22;2304;47.606;12.186;2023-05-28T22:21:42;18.20;59.30
4584;DHT22;2304;47.606;12.186;2023-05-28T22:26:44;18.10;59.20
4584;DHT22;2304;47.606;12.186;2023-05-28T22:31:47;18.10;59.70
4584;DHT22;2304;47.606;12.186;2023-05-28T22:36:50;18.10;59.20
4584;DHT22;2304;47.606;12.186;2023-05-28T22:41:52;18.00;59.50
4584;DHT22;2304;47.606;12.186;2023-05-28T22:46:54;18.20;58.50
4584;DHT22;2304;47.606;12.186;2023-05-28T22:51:58;17.90;59.80
4584;DHT22;2304;47.606;12.186;2023-05-28T22:57:01;17.80;60.70
4584;DHT22;2304;47.606;12.186;2023-05-28T23:02:04;17.80;61.30
4584;DHT22;2304;47.606;12.186;2023-05-28T23:07:07;17.80;59.70
4584;DHT22;2304;47.606;12.186;2023-05-28T23:12:09;17.70;60.50
4584;DHT22;2304;47.606;12.186;2023-05-28T23:17:12;17.70;61.30
4584;DHT22;2304;47.606;12.186;2023-05-28T23:22:18;17.70;61.20
4584;DHT22;2304;47.606;12.186;2023-05-28T23:27:20;17.70;61.30
4584;DHT22;2304;47.606;12.186;2023-05-28T23:32:22;17.70;60.80
4584;DHT22;2304;47.606;12.186;2023-05-28T23:37:25;17.60;61.20
4584;DHT22;2304;47.606;12.186;2023-05-28T23:42:27;17.70;61.70
4584;DHT22;2304;47.606;12.186;2023-05-28T23:47:29;17.50;61.70
4584;DHT22;2304;47.606;12.186;2023-05-28T23:52:33;17.50;62.10
4584;DHT22;2304;47.606;12.186;2023-05-28T23:57:35;17.40;61.90
